Time;durP1;ratioP1;P1;durP2;ratioP2;P2;SDS_P1;SDS_P2;PMS_P1;PMS_P2;Temp;Humidity;BMP_temperature;BMP_pressure;BME280_temperature;BME280_humidity;BME280_pressure;Samples;Min_cycle;Max_cycle;Signal;HPM_P1;HPM_P2
2021/10/12 00:01:11;;;;;;;3.90;1.60;;;10.50;99.90;;;;;;5073979;28;20037;-69
2021/10/12 00:03:40;;;;;;;7.85;1.70;;;10.60;99.90;;;;;;5072839;28;20080;-69
2021/10/12 00:06:06;;;;;;;6.80;1.42;;;10.60;99.90;;;;;;5073786;28;20044;-69
2021/10/12 00:08:33;;;;;;;8.77;1.70;;;10.60;99.90;;;;;;5073829;28;20048;-69
2021/10/12 00:10:59;;;;;;;9.57;2.10;;;10.60;99.90;;;;;;5073615;28;20047;-69
2021/10/12 00:13:25;;;;;;;8.93;1.98;;;10.60;99.90;;;;;;5072507;28;20393;-69
2021/10/12 00:15:51;;;;;;;11.05;2.50;;;10.60;99.90;;;;;;5073560;28;20048;-69
2021/10/12 00:18:16;;;;;;;7.38;1.98;;;10.60;99.90;;;;;;5072300;28;20037;-69
2021/10/12 00:20:42;;;;;;;11.60;1.83;;;10.60;99.90;;;;;;5073578;28;20028;-69
2021/10/12 00:23:08;;;;;;;10.50;1.98;;;10.60;99.90;;;;;;5073934;28;20480;-69
2021/10/12 00:25:34;;;;;;;8.95;2.28;;;10.70;99.90;;;;;;5073526;28;20072;-70
2021/10/12 00:27:59;;;;;;;12.85;1.90;;;10.70;99.90;;;;;;5073559;28;20044;-70
2021/10/12 00:30:25;;;;;;;11.30;2.15;;;10.70;99.90;;;;;;5073102;28;20503;-70
2021/10/12 00:32:51;;;;;;;13.93;1.98;;;10.70;99.90;;;;;;5073601;28;20045;-70
2021/10/12 00:35:17;;;;;;;6.65;1.73;;;10.80;99.90;;;;;;5072046;28;20086;-69
2021/10/12 00:37:42;;;;;;;8.38;1.67;;;10.80;99.90;;;;;;5073753;28;20111;-70
2021/10/12 00:40:08;;;;;;;13.05;2.10;;;10.70;99.90;;;;;;5073010;28;20041;-70
2021/10/12 00:42:35;;;;;;;10.30;2.28;;;10.70;99.90;;;;;;5073424;28;20040;-70
2021/10/12 00:45:06;;;;;;;9.75;1.80;;;10.70;99.90;;;;;;5073584;28;20431;-70
2021/10/12 00:47:32;;;;;;;8.88;1.75;;;10.70;99.90;;;;;;5073194;28;20033;-70
2021/10/12 00:49:57;;;;;;;7.18;2.03;;;10.70;99.90;;;;;;5072582;28;20082;-70
2021/10/12 00:52:23;;;;;;;10.00;1.90;;;10.70;99.90;;;;;;5073101;28;20094;-70
2021/10/12 00:54:49;;;;;;;7.65;2.17;;;10.70;99.90;;;;;;5071946;28;20550;-70
2021/10/12 00:57:14;;;;;;;9.70;1.98;;;10.70;99.90;;;;;;5073175;28;20032;-70
2021/10/12 00:59:40;;;;;;;14.48;2.13;;;10.60;99.90;;;;;;5071579;28;20049;-70
2021/10/12 01:02:07;;;;;;;11.50;2.03;;;10.60;99.90;;;;;;5073138;28;20033;-70
2021/10/12 01:04:33;;;;;;;12.27;2.10;;;10.60;99.90;;;;;;5072234;28;20154;-70
2021/10/12 01:06:59;;;;;;;13.57;1.80;;;10.70;99.90;;;;;;5073207;28;20044;-70
2021/10/12 01:09:25;;;;;;;8.65;1.90;;;10.70;99.90;;;;;;5071371;28;20044;-69
2021/10/12 01:11:50;;;;;;;10.80;2.00;;;10.70;99.90;;;;;;5073287;28;20072;-69
2021/10/12 01:14:16;;;;;;;11.90;2.50;;;10.70;99.90;;;;;;5071694;28;20516;-69
2021/10/12 01:16:41;;;;;;;9.38;1.70;;;10.70;99.90;;;;;;5072707;28;20048;-70
2021/10/12 01:19:08;;;;;;;10.07;2.20;;;10.70;99.90;;;;;;5072619;28;20093;-70
2021/10/12 01:21:45;;;;;;;12.15;2.17;;;10.80;99.90;;;;;;5072914;28;20392;-70
2021/10/12 01:24:12;;;;;;;13.82;2.22;;;10.80;99.90;;;;;;5073192;28;20067;-70
2021/10/12 01:26:41;;;;;;;13.77;3.10;;;10.80;99.90;;;;;;5071663;28;20400;-70
2021/10/12 01:29:08;;;;;;;9.13;2.15;;;10.80;99.90;;;;;;5072622;28;20044;-70
2021/10/12 01:31:34;;;;;;;9.77;2.53;;;10.90;99.90;;;;;;5071452;28;20048;-70
2021/10/12 01:34:00;;;;;;;12.02;3.45;;;10.90;99.90;;;;;;5072074;28;20048;-70
2021/10/12 01:36:26;;;;;;;7.45;1.92;;;10.90;99.90;;;;;;5072631;28;20048;-70
2021/10/12 01:38:52;;;;;;;12.18;2.38;;;10.90;99.90;;;;;;5071326;28;20037;-70
2021/10/12 01:41:18;;;;;;;11.80;2.42;;;10.90;99.90;;;;;;5072880;28;20085;-70
2021/10/12 01:43:44;;;;;;;11.55;2.10;;;10.80;99.90;;;;;;5073160;28;20041;-70
2021/10/12 01:46:10;;;;;;;16.45;2.72;;;10.80;99.90;;;;;;5072645;28;20049;-70
2021/10/12 01:48:37;;;;;;;12.55;2.80;;;10.80;99.90;;;;;;5071593;28;20080;-70
2021/10/12 01:51:04;;;;;;;14.88;2.40;;;10.80;99.90;;;;;;5072568;28;20041;-70
2021/10/12 01:53:30;;;;;;;15.98;3.22;;;10.70;99.90;;;;;;5072564;28;20147;-70
2021/10/12 01:55:56;;;;;;;14.85;2.83;;;10.70;99.90;;;;;;5072692;28;20049;-70
2021/10/12 01:58:22;;;;;;;15.50;2.05;;;10.70;99.90;;;;;;5072611;28;20438;-70
2021/10/12 02:00:47;;;;;;;14.32;2.50;;;10.70;99.90;;;;;;5073292;28;20117;-70
2021/10/12 02:03:13;;;;;;;12.70;4.35;;;10.70;99.90;;;;;;5076277;28;20115;-70
2021/10/12 02:05:39;;;;;;;12.02;3.08;;;10.70;99.90;;;;;;5076474;28;20127;-70
2021/10/12 02:08:05;;;;;;;15.10;2.60;;;10.80;99.90;;;;;;5076061;28;20090;-70
2021/10/12 02:10:31;;;;;;;15.95;3.00;;;10.80;99.90;;;;;;5076077;28;20091;-70
2021/10/12 02:12:57;;;;;;;11.15;3.03;;;10.80;99.90;;;;;;5074917;28;20045;-70
2021/10/12 02:15:22;;;;;;;12.27;3.03;;;10.90;99.90;;;;;;5075129;28;20049;-70
2021/10/12 02:17:48;;;;;;;16.05;2.50;;;10.90;99.90;;;;;;5074582;28;20047;-70
2021/10/12 02:20:14;;;;;;;9.27;2.83;;;10.90;99.90;;;;;;5074561;28;20072;-70
2021/10/12 02:22:40;;;;;;;7.13;2.22;;;11.00;99.90;;;;;;5074827;28;20086;-70
2021/10/12 02:25:07;;;;;;;10.70;2.13;;;11.00;99.90;;;;;;5075789;28;20085;-70
2021/10/12 02:27:33;;;;;;;9.75;1.90;;;10.90;99.90;;;;;;5075992;28;20040;-70
2021/10/12 02:29:59;;;;;;;10.98;2.00;;;10.90;99.90;;;;;;5075314;28;20047;-70
2021/10/12 02:32:25;;;;;;;12.23;2.58;;;10.90;99.90;;;;;;5075578;28;20037;-70
2021/10/12 02:34:51;;;;;;;9.00;2.30;;;10.90;99.90;;;;;;5074770;28;20043;-70
2021/10/12 02:37:16;;;;;;;11.77;2.63;;;10.90;99.90;;;;;;5074280;28;20141;-70
2021/10/12 02:39:42;;;;;;;14.43;2.03;;;11.00;99.90;;;;;;5074198;28;20037;-70
2021/10/12 02:42:08;;;;;;;11.25;3.35;;;11.00;99.90;;;;;;5074122;28;20542;-70
2021/10/12 02:44:33;;;;;;;10.07;2.28;;;11.00;99.90;;;;;;5075585;28;20029;-70
2021/10/12 02:47:00;;;;;;;12.40;2.00;;;10.90;99.90;;;;;;5074360;28;20036;-70
2021/10/12 02:49:26;;;;;;;11.05;2.53;;;11.00;99.90;;;;;;5074934;28;20036;-70
2021/10/12 02:51:52;;;;;;;7.80;2.10;;;11.00;99.90;;;;;;5075769;28;20534;-70
2021/10/12 02:54:17;;;;;;;9.50;2.13;;;11.00;99.90;;;;;;5074377;28;20123;-70
2021/10/12 02:56:43;;;;;;;9.60;1.95;;;11.00;99.90;;;;;;5075346;28;20040;-70
2021/10/12 02:59:09;;;;;;;11.48;1.98;;;11.00;99.90;;;;;;5073701;28;20044;-70
2021/10/12 03:01:34;;;;;;;13.15;2.28;;;11.00;99.90;;;;;;5075048;28;20037;-70
2021/10/12 03:04:00;;;;;;;13.77;3.38;;;11.10;99.90;;;;;;5073747;28;20107;-70
2021/10/12 03:06:26;;;;;;;10.40;2.08;;;11.10;99.90;;;;;;5075300;28;20127;-69
2021/10/12 03:08:51;;;;;;;12.40;2.45;;;11.20;99.90;;;;;;5074843;28;20037;-70
2021/10/12 03:11:19;;;;;;;10.98;2.13;;;11.10;99.90;;;;;;5074556;28;20065;-70
2021/10/12 03:13:44;;;;;;;12.68;2.97;;;11.10;99.90;;;;;;5073562;28;20040;-70
2021/10/12 03:16:10;;;;;;;9.88;2.20;;;11.10;99.90;;;;;;5074561;28;20052;-70
2021/10/12 03:18:37;;;;;;;15.20;2.47;;;11.20;99.90;;;;;;5074353;28;20046;-70
2021/10/12 03:21:04;;;;;;;12.18;2.15;;;11.20;99.90;;;;;;5074876;28;20036;-70
2021/10/12 03:23:29;;;;;;;14.18;2.50;;;11.20;99.90;;;;;;5074594;28;20097;-70
2021/10/12 03:25:56;;;;;;;12.80;1.77;;;11.10;99.90;;;;;;5074778;28;20455;-70
2021/10/12 03:28:22;;;;;;;8.30;2.47;;;11.10;99.90;;;;;;5074533;28;20037;-70
2021/10/12 03:30:48;;;;;;;10.05;1.80;;;11.10;99.90;;;;;;5073287;28;20403;-70
2021/10/12 03:33:19;;;;;;;12.30;2.40;;;11.10;99.90;;;;;;5074285;28;20123;-70
2021/10/12 03:35:56;;;;;;;15.40;3.22;;;11.10;99.90;;;;;;5074637;28;20045;-70
2021/10/12 03:38:26;;;;;;;11.15;2.65;;;11.20;99.90;;;;;;5073289;28;20044;-70
2021/10/12 03:40:53;;;;;;;12.98;2.42;;;11.10;99.90;;;;;;5074140;28;20041;-70
2021/10/12 03:43:19;;;;;;;7.32;1.92;;;11.10;99.90;;;;;;5073730;28;20043;-70
2021/10/12 03:45:45;;;;;;;12.93;2.30;;;11.10;99.90;;;;;;5074570;28;20032;-70
2021/10/12 03:48:10;;;;;;;15.65;2.20;;;11.00;99.90;;;;;;5074327;28;20115;-70
2021/10/12 03:50:37;;;;;;;8.38;2.03;;;11.10;99.90;;;;;;5073916;28;20075;-69
2021/10/12 03:53:03;;;;;;;16.00;2.83;;;11.00;99.90;;;;;;5072652;28;20036;-70
2021/10/12 03:55:29;;;;;;;13.07;2.40;;;11.10;99.90;;;;;;5072447;28;20512;-69
2021/10/12 03:57:54;;;;;;;14.45;2.45;;;11.10;99.90;;;;;;5072673;28;20044;-70
2021/10/12 04:00:20;;;;;;;9.23;2.10;;;11.10;99.90;;;;;;5073645;28;20048;-70
2021/10/12 04:02:45;;;;;;;11.77;2.38;;;11.00;99.90;;;;;;5072645;28;20041;-70
2021/10/12 04:05:11;;;;;;;12.40;2.28;;;11.10;99.90;;;;;;5073958;28;20064;-69
2021/10/12 04:07:37;;;;;;;13.77;2.40;;;11.10;99.90;;;;;;5073750;28;20036;-69
2021/10/12 04:10:03;;;;;;;11.27;2.67;;;11.10;99.90;;;;;;5073427;28;20127;-70
2021/10/12 04:12:29;;;;;;;9.98;2.60;;;11.10;99.90;;;;;;5073686;28;20032;-69
2021/10/12 04:14:55;;;;;;;12.73;2.38;;;11.10;99.90;;;;;;5073507;28;20446;-70
2021/10/12 04:17:20;;;;;;;11.80;3.05;;;11.10;99.90;;;;;;5073281;28;20123;-70
2021/10/12 04:19:46;;;;;;;12.00;2.72;;;11.00;99.90;;;;;;5071913;28;20115;-70
2021/10/12 04:22:12;;;;;;;13.90;2.95;;;11.00;99.90;;;;;;5072134;28;20086;-70
2021/10/12 04:24:38;;;;;;;10.13;2.03;;;11.10;99.90;;;;;;5072345;28;20043;-70
2021/10/12 04:27:04;;;;;;;12.25;2.80;;;11.10;99.90;;;;;;5072580;28;20044;-70
2021/10/12 04:29:30;;;;;;;9.43;2.30;;;11.00;99.90;;;;;;5073222;28;20446;-70
2021/10/12 04:31:56;;;;;;;7.80;2.38;;;11.00;99.90;;;;;;5073541;28;20044;-70
2021/10/12 04:34:22;;;;;;;13.70;3.42;;;11.00;99.90;;;;;;5073732;28;20037;-70
2021/10/12 04:36:48;;;;;;;10.50;2.17;;;11.00;99.90;;;;;;5072063;28;20044;-70
2021/10/12 04:39:14;;;;;;;10.88;2.50;;;11.00;99.90;;;;;;5073571;28;20415;-70
2021/10/12 04:41:40;;;;;;;8.40;2.47;;;11.10;99.90;;;;;;5073133;28;20154;-69
2021/10/12 04:44:09;;;;;;;12.35;2.50;;;11.20;99.90;;;;;;5072526;28;20068;-70
2021/10/12 04:46:36;;;;;;;11.80;2.78;;;11.20;99.90;;;;;;5073657;28;20103;-70
2021/10/12 04:49:03;;;;;;;10.90;2.53;;;11.20;99.90;;;;;;5071923;28;20044;-70
2021/10/12 04:51:28;;;;;;;10.27;2.40;;;11.20;99.90;;;;;;5073539;28;20070;-70
2021/10/12 04:53:54;;;;;;;16.88;3.28;;;11.20;99.90;;;;;;5073404;28;20036;-70
2021/10/12 04:56:19;;;;;;;7.63;2.80;;;11.20;99.90;;;;;;5073330;28;20059;-70
2021/10/12 04:58:45;;;;;;;12.05;2.60;;;11.20;99.90;;;;;;5072702;28;20037;-70
2021/10/12 05:01:10;;;;;;;13.25;2.78;;;11.20;99.90;;;;;;5071759;28;20051;-70
2021/10/12 05:03:36;;;;;;;12.75;2.88;;;11.10;99.90;;;;;;5071669;28;20064;-70
2021/10/12 05:06:01;;;;;;;15.52;2.97;;;11.20;99.90;;;;;;5071979;28;20045;-70
2021/10/12 05:08:27;;;;;;;10.30;2.88;;;11.30;99.90;;;;;;5072674;28;20048;-70
2021/10/12 05:10:53;;;;;;;11.88;2.88;;;11.20;99.90;;;;;;5071698;28;20037;-71
2021/10/12 05:13:18;;;;;;;13.18;2.80;;;11.30;99.90;;;;;;5072816;28;20037;-72
2021/10/12 05:15:47;;;;;;;11.02;2.08;;;11.20;99.90;;;;;;5071652;28;20078;-71
2021/10/12 05:18:21;;;;;;;6.63;1.65;;;11.30;99.90;;;;;;5072987;28;20048;-70
2021/10/12 05:20:47;;;;;;;16.95;2.88;;;11.20;99.90;;;;;;5073190;28;20037;-70
2021/10/12 05:23:14;;;;;;;6.57;1.10;;;11.20;99.90;;;;;;5072980;28;20033;-71
2021/10/12 05:25:40;;;;;;;4.80;1.50;;;11.20;99.90;;;;;;5073113;28;20048;-70
2021/10/12 05:28:08;;;;;;;8.60;1.00;;;11.20;99.90;;;;;;5072685;28;20037;-70
2021/10/12 05:30:39;;;;;;;6.57;1.13;;;11.20;99.90;;;;;;5072734;28;20047;-71
2021/10/12 05:33:18;;;;;;;5.63;1.55;;;11.10;99.90;;;;;;5072210;28;20045;-70
2021/10/12 05:35:44;;;;;;;11.95;1.85;;;11.10;99.90;;;;;;5073490;28;20040;-70
2021/10/12 05:38:11;;;;;;;7.82;1.10;;;11.10;99.90;;;;;;5076758;28;20052;-71
2021/10/12 05:40:36;;;;;;;5.03;1.42;;;11.10;99.90;;;;;;5076351;28;20041;-70
2021/10/12 05:43:02;;;;;;;6.10;1.15;;;11.10;99.90;;;;;;5076521;28;20127;-70
2021/10/12 05:45:28;;;;;;;12.52;1.83;;;11.10;99.90;;;;;;5076505;28;20507;-71
2021/10/12 05:47:53;;;;;;;4.72;1.00;;;11.10;99.90;;;;;;5076747;28;20067;-71
2021/10/12 05:50:19;;;;;;;8.52;0.95;;;11.10;99.90;;;;;;5076267;28;20044;-69
2021/10/12 05:53:32;;;;;;;3.65;0.80;;;11.00;99.90;;;;;;5076241;28;20043;-71
2021/10/12 05:55:50;;;;;;;5.45;1.02;;;11.10;99.90;;;;;;5071018;28;20049;-70
2021/10/12 05:58:28;;;;;;;5.60;0.80;;;11.10;99.90;;;;;;5075045;28;20044;-70
2021/10/12 06:00:55;;;;;;;35.42;8.48;;;11.00;99.90;;;;;;5075017;28;20116;-70
2021/10/12 06:03:21;;;;;;;20.67;8.88;;;11.00;99.90;;;;;;5075973;28;20594;-68
2021/10/12 06:05:47;;;;;;;11.77;5.13;;;11.10;99.90;;;;;;5076304;28;20071;-70
2021/10/12 06:08:13;;;;;;;11.10;1.63;;;11.10;99.90;;;;;;5076530;28;20048;-70
2021/10/12 06:10:39;;;;;;;6.65;1.70;;;11.10;99.90;;;;;;5074684;28;20048;-70
2021/10/12 06:13:11;;;;;;;8.10;1.50;;;11.10;99.90;;;;;;5076199;28;20041;-70
2021/10/12 06:15:39;;;;;;;7.00;1.40;;;11.10;99.90;;;;;;5075637;28;20048;-71
2021/10/12 06:18:05;;;;;;;5.43;1.45;;;11.10;99.90;;;;;;5075832;28;20271;-71
2021/10/12 06:20:31;;;;;;;7.75;1.50;;;11.20;99.90;;;;;;5075808;28;20480;-71
2021/10/12 06:22:56;;;;;;;6.30;1.48;;;11.10;99.90;;;;;;5076061;28;20036;-70
2021/10/12 06:25:22;;;;;;;9.15;1.98;;;11.10;99.90;;;;;;5075973;28;20032;-71
2021/10/12 06:27:48;;;;;;;8.20;1.40;;;11.00;99.90;;;;;;5074527;28;20037;-71
2021/10/12 06:30:13;;;;;;;6.55;1.80;;;11.00;99.90;;;;;;5074026;28;20045;-71
2021/10/12 06:32:39;;;;;;;9.20;1.50;;;10.90;99.90;;;;;;5074609;28;20048;-71
2021/10/12 06:35:08;;;;;;;7.88;1.70;;;10.90;99.90;;;;;;5075606;28;20040;-71
2021/10/12 06:37:34;;;;;;;6.97;1.50;;;10.80;99.90;;;;;;5075784;28;20127;-71
2021/10/12 06:40:00;;;;;;;6.75;1.58;;;10.80;99.90;;;;;;5074079;28;20072;-70
2021/10/12 06:42:26;;;;;;;8.85;1.52;;;10.90;99.90;;;;;;5075318;28;20040;-70
2021/10/12 06:44:52;;;;;;;7.72;1.92;;;10.90;99.90;;;;;;5075470;28;20051;-71
2021/10/12 06:47:17;;;;;;;6.63;1.90;;;10.90;99.90;;;;;;5074257;28;20404;-71
2021/10/12 06:49:43;;;;;;;11.48;2.40;;;10.90;99.90;;;;;;5075087;28;20465;-71
2021/10/12 06:52:09;;;;;;;9.82;2.45;;;10.90;99.90;;;;;;5075230;28;20064;-71
2021/10/12 06:54:35;;;;;;;8.00;2.33;;;10.90;99.90;;;;;;5075269;28;20418;-71
2021/10/12 06:57:01;;;;;;;8.63;2.38;;;10.90;99.90;;;;;;5075350;28;20048;-70
2021/10/12 06:59:28;;;;;;;9.70;2.10;;;11.00;99.90;;;;;;5074831;28;20396;-71
2021/10/12 07:01:54;;;;;;;8.52;2.25;;;11.00;99.90;;;;;;5073939;28;20473;-71
2021/10/12 07:04:21;;;;;;;9.50;2.00;;;11.00;99.90;;;;;;5075287;28;20040;-71
2021/10/12 07:06:47;;;;;;;8.27;1.60;;;11.00;99.90;;;;;;5075112;28;20037;-71
2021/10/12 07:09:16;;;;;;;7.32;1.30;;;11.00;99.90;;;;;;5074982;28;20043;-71
2021/10/12 07:11:41;;;;;;;7.72;1.48;;;11.10;99.90;;;;;;5073737;28;20052;-70
2021/10/12 07:14:07;;;;;;;11.43;1.60;;;11.10;99.90;;;;;;5073837;28;20053;-70
2021/10/12 07:16:33;;;;;;;13.02;2.13;;;11.10;99.90;;;;;;5074810;28;20060;-70
2021/10/12 07:19:01;;;;;;;6.80;1.45;;;11.10;99.90;;;;;;5073132;28;20072;-70
2021/10/12 07:21:26;;;;;;;5.28;1.38;;;11.10;99.90;;;;;;5075098;28;20112;-71
2021/10/12 07:23:52;;;;;;;13.00;1.90;;;11.10;99.90;;;;;;5074771;28;20064;-69
2021/10/12 07:26:18;;;;;;;7.22;1.65;;;11.10;99.90;;;;;;5074829;28;20036;-70
2021/10/12 07:28:44;;;;;;;7.28;1.40;;;11.20;99.90;;;;;;5073585;28;20044;-70
2021/10/12 07:31:10;;;;;;;13.10;1.60;;;11.20;99.90;;;;;;5074528;28;20032;-70
2021/10/12 07:33:36;;;;;;;10.25;1.90;;;11.30;99.90;;;;;;5074793;28;20437;-70
2021/10/12 07:36:03;;;;;;;12.23;2.20;;;11.30;99.90;;;;;;5074339;28;20561;-69
2021/10/12 07:38:29;;;;;;;8.88;1.90;;;11.30;99.90;;;;;;5074206;28;20074;-70
2021/10/12 07:40:55;;;;;;;9.43;2.00;;;11.30;99.90;;;;;;5073129;28;20048;-70
2021/10/12 07:43:20;;;;;;;13.70;2.20;;;11.40;99.90;;;;;;5074089;28;20037;-70
2021/10/12 07:45:48;;;;;;;9.70;2.20;;;11.40;99.90;;;;;;5074333;28;20389;-70
2021/10/12 07:48:15;;;;;;;14.15;2.28;;;11.50;99.90;;;;;;5072883;28;20098;-70
2021/10/12 07:50:41;;;;;;;10.35;2.00;;;11.60;99.90;;;;;;5073787;28;20484;-70
2021/10/12 07:53:07;;;;;;;11.77;1.73;;;11.60;99.90;;;;;;5072677;28;20036;-70
2021/10/12 07:55:36;;;;;;;11.02;2.00;;;11.70;99.90;;;;;;5074220;28;20133;-70
2021/10/12 07:58:02;;;;;;;10.50;2.58;;;11.70;99.90;;;;;;5074318;28;20098;-70
2021/10/12 08:00:31;;;;;;;11.68;2.63;;;11.70;99.90;;;;;;5073851;28;20028;-70
2021/10/12 08:02:58;;;;;;;15.23;2.58;;;11.70;99.90;;;;;;5074366;28;20397;-70
2021/10/12 08:05:24;;;;;;;5.22;1.95;;;11.80;99.90;;;;;;5074389;28;20048;-69
2021/10/12 08:07:50;;;;;;;12.32;1.85;;;12.00;99.90;;;;;;5089861;28;20045;-70
2021/10/12 08:10:16;;;;;;;6.72;1.83;;;12.20;99.90;;;;;;5072244;28;20044;-70
2021/10/12 08:12:44;;;;;;;9.55;1.92;;;12.30;99.90;;;;;;5073672;28;20074;-69
2021/10/12 08:15:11;;;;;;;14.40;2.55;;;12.40;99.90;;;;;;5072406;28;20066;-70
2021/10/12 08:17:37;;;;;;;10.55;1.90;;;12.40;99.90;;;;;;5073897;28;20055;-69
2021/10/12 08:20:03;;;;;;;8.55;1.88;;;12.40;99.90;;;;;;5073413;28;20036;-70
2021/10/12 08:22:29;;;;;;;12.93;2.00;;;12.40;99.90;;;;;;5072424;28;20048;-69
2021/10/12 08:24:55;;;;;;;15.65;2.05;;;12.50;99.90;;;;;;5074279;28;20380;-70
2021/10/12 08:27:21;;;;;;;13.27;1.98;;;12.50;99.90;;;;;;5073933;28;20451;-70
2021/10/12 08:29:46;;;;;;;14.25;2.45;;;12.60;99.90;;;;;;5072002;28;20048;-70
2021/10/12 08:32:12;;;;;;;9.85;2.22;;;12.60;99.90;;;;;;5072513;28;20132;-70
2021/10/12 08:34:38;;;;;;;9.77;2.00;;;12.70;99.90;;;;;;5073469;28;20511;-70
2021/10/12 08:37:03;;;;;;;14.30;1.55;;;12.70;99.90;;;;;;5073637;28;20040;-70
2021/10/12 08:39:30;;;;;;;11.70;1.75;;;12.60;99.90;;;;;;5072209;28;20575;-70
2021/10/12 08:41:59;;;;;;;10.75;2.10;;;12.80;99.90;;;;;;5072281;28;20046;-70
2021/10/12 08:44:25;;;;;;;11.65;1.92;;;12.80;99.90;;;;;;5073571;28;20044;-70
2021/10/12 08:46:54;;;;;;;13.73;3.00;;;12.90;99.90;;;;;;5072099;28;20442;-70
2021/10/12 08:49:19;;;;;;;9.30;1.67;;;12.90;99.90;;;;;;5072971;28;20048;-70
2021/10/12 08:51:45;;;;;;;12.27;1.75;;;13.00;99.90;;;;;;5072277;28;20037;-70
2021/10/12 08:54:12;;;;;;;8.77;1.90;;;12.90;99.90;;;;;;5073118;28;20500;-70
2021/10/12 08:56:38;;;;;;;11.40;1.85;;;12.90;99.90;;;;;;5073510;28;20076;-70
2021/10/12 08:59:04;;;;;;;11.20;2.00;;;12.90;99.90;;;;;;5073061;28;20037;-70
2021/10/12 09:01:31;;;;;;;12.30;1.73;;;12.80;99.90;;;;;;5073522;28;20040;-70
2021/10/12 09:06:32;;;;;;;5.22;1.40;;;12.80;99.90;;;;;;5084440;28;20044;-72
2021/10/12 09:09:14;;;;;;;5.53;1.08;;;12.80;99.90;;;;;;5091695;28;20482;-70
2021/10/12 09:11:41;;;;;;;6.18;1.10;;;12.70;99.90;;;;;;5095680;28;20051;-68
2021/10/12 09:14:07;;;;;;;5.72;1.38;;;12.60;99.90;;;;;;5095891;28;20472;-69
2021/10/12 09:16:43;;;;;;;5.72;1.30;;;12.60;99.90;;;;;;5082577;28;20041;-69
2021/10/12 09:19:16;;;;;;;4.63;1.20;;;12.60;99.90;;;;;;5081406;28;20412;-71
2021/10/12 09:21:46;;;;;;;;;;;12.50;99.90;;;;;;5087359;28;20115;-71
2021/10/12 09:24:13;;;;;;;10.05;1.58;;;12.40;99.90;;;;;;5087700;28;20337;-70
2021/10/12 09:26:55;;;;;;;6.03;1.00;;;12.50;99.90;;;;;;5094665;28;20512;-71
2021/10/12 09:29:28;;;;;;;5.68;0.82;;;12.50;99.90;;;;;;5096015;28;20044;-71
2021/10/12 09:31:55;;;;;;;7.63;1.30;;;12.50;99.90;;;;;;5095839;28;20050;-71
2021/10/12 09:34:22;;;;;;;5.40;1.10;;;12.50;99.90;;;;;;5097302;28;20076;-71
2021/10/12 09:36:49;;;;;;;9.75;1.42;;;12.60;99.90;;;;;;5097428;28;20044;-71
2021/10/12 09:39:18;;;;;;;6.20;1.42;;;12.60;99.90;;;;;;5096640;28;20043;-72
2021/10/12 09:41:55;;;;;;;3.92;1.08;;;12.60;99.90;;;;;;5096699;28;20038;-71
2021/10/12 09:44:21;;;;;;;7.18;1.30;;;12.60;99.90;;;;;;5097160;28;20036;-71
2021/10/12 09:46:50;;;;;;;3.50;1.10;;;12.60;99.90;;;;;;5096660;28;20096;-72
2021/10/12 09:49:17;;;;;;;7.65;1.38;;;12.60;99.90;;;;;;5095242;28;20051;-70
2021/10/12 09:52:03;;;;;;;8.60;1.33;;;12.60;99.90;;;;;;5096754;28;20102;-70
2021/10/12 09:54:32;;;;;;;4.32;0.98;;;12.60;99.90;;;;;;5096603;28;20067;-70
2021/10/12 09:56:59;;;;;;;6.07;0.90;;;12.60;99.90;;;;;;5095410;28;20165;-70
2021/10/12 09:59:25;;;;;;;7.60;1.10;;;12.70;99.90;;;;;;5078578;28;20044;-71
2021/10/12 10:01:52;;;;;;;7.22;1.02;;;12.70;99.90;;;;;;5096674;28;20043;-71
2021/10/12 10:04:19;;;;;;;4.35;1.30;;;12.70;99.90;;;;;;5097037;28;20038;-71
2021/10/12 10:06:49;;;;;;;5.38;1.15;;;12.60;99.90;;;;;;5095250;28;20071;-71
2021/10/12 10:09:18;;;;;;;8.18;2.45;;;12.50;99.90;;;;;;5096135;28;20051;-70
2021/10/12 10:11:44;;;;;;;8.00;1.40;;;12.50;99.90;;;;;;5096535;28;20042;-72
2021/10/12 10:14:12;;;;;;;8.68;1.33;;;12.40;99.90;;;;;;5096543;28;20436;-71
2021/10/12 10:16:42;;;;;;;6.35;1.00;;;12.50;99.90;;;;;;5096196;28;20036;-71
2021/10/12 10:19:23;;;;;;;7.28;1.50;;;12.60;99.90;;;;;;5094625;28;20661;-72
2021/10/12 10:21:50;;;;;;;8.73;1.58;;;12.60;99.90;;;;;;5097078;28;20044;-72
2021/10/12 10:24:29;;;;;;;5.15;1.48;;;12.70;99.90;;;;;;5094912;28;20396;-71
2021/10/12 10:26:54;;;;;;;7.80;1.30;;;12.60;99.90;;;;;;5078023;28;20040;-72
2021/10/12 10:29:35;;;;;;;5.43;1.30;;;12.60;99.90;;;;;;5094689;28;20127;-72
2021/10/12 10:32:11;;;;;;;3.92;1.25;;;12.50;99.90;;;;;;5095938;28;20093;-72
2021/10/12 10:34:40;;;;;;;4.45;0.90;;;12.50;99.90;;;;;;5096193;28;20498;-72
2021/10/12 10:37:18;;;;;;;4.30;0.80;;;12.50;99.90;;;;;;5096031;28;20036;-72
2021/10/12 10:39:49;;;;;;;8.35;0.90;;;12.60;99.90;;;;;;5095590;28;20115;-72
2021/10/12 10:42:27;;;;;;;4.43;1.02;;;12.50;99.90;;;;;;5096296;28;20060;-72
2021/10/12 10:44:54;;;;;;;6.97;0.80;;;12.50;99.90;;;;;;5094749;28;20373;-72
2021/10/12 10:47:42;;;;;;;7.03;1.35;;;12.60;99.90;;;;;;5095662;28;20043;-73
2021/10/12 10:50:27;;;;;;;5.82;1.58;;;12.70;99.90;;;;;;5094286;28;20044;-72
2021/10/12 10:52:58;;;;;;;9.20;1.30;;;12.70;99.90;;;;;;5094177;28;20117;-71
2021/10/12 10:55:27;;;;;;;6.38;1.40;;;12.70;99.90;;;;;;5095465;28;20043;-71
2021/10/12 10:58:02;;;;;;;5.85;1.30;;;12.60;99.90;;;;;;5095653;28;20040;-71
2021/10/12 11:00:28;;;;;;;6.93;1.27;;;12.70;99.90;;;;;;5094184;28;20036;-72
2021/10/12 11:02:55;;;;;;;6.10;1.17;;;12.60;99.90;;;;;;5093954;28;20484;-72
2021/10/12 11:05:40;;;;;;;8.57;1.60;;;12.80;99.90;;;;;;5095333;28;20093;-72
2021/10/12 11:08:21;;;;;;;3.85;1.38;;;12.80;99.90;;;;;;5095163;28;20180;-71
2021/10/12 11:10:53;;;;;;;5.55;1.40;;;12.90;99.90;;;;;;5095038;28;20036;-71
2021/10/12 11:13:40;;;;;;;5.05;1.52;;;13.00;99.90;;;;;;5095416;28;20044;-71
2021/10/12 11:16:13;;;;;;;4.88;1.02;;;13.10;99.90;;;;;;5094933;28;20125;-71
2021/10/12 11:18:40;;;;;;;;;;;13.20;99.90;;;;;;5095200;28;20036;-71
2021/10/12 11:21:08;;;;;;;4.72;1.23;;;13.20;99.80;;;;;;5095120;28;19916;-70
2021/10/12 11:23:36;;;;;;;6.90;1.20;;;13.30;99.90;;;;;;5095359;28;20036;-70
2021/10/12 11:26:05;;;;;;;4.10;1.25;;;13.30;99.90;;;;;;5093793;28;20123;-71
2021/10/12 11:28:33;;;;;;;7.82;1.55;;;13.40;99.90;;;;;;5093877;28;20476;-70
2021/10/12 11:31:04;;;;;;;8.88;1.40;;;13.30;99.90;;;;;;5094805;28;20492;-70
2021/10/12 11:33:31;;;;;;;9.70;1.55;;;13.10;99.90;;;;;;5093979;28;20123;-69
2021/10/12 11:36:01;;;;;;;65.80;9.60;;;13.00;99.90;;;;;;5094719;28;20048;-69
2021/10/12 11:38:33;;;;;;;8.20;1.45;;;12.80;99.90;;;;;;5095350;28;20372;-71
2021/10/12 11:40:59;;;;;;;7.03;1.73;;;12.80;99.90;;;;;;5095099;28;20432;-69
2021/10/12 11:43:37;;;;;;;7.53;1.60;;;12.60;99.90;;;;;;5094595;28;20390;-69
2021/10/12 11:46:03;;;;;;;61.83;9.73;;;12.40;99.90;;;;;;5095188;28;20036;-69
2021/10/12 11:48:34;;;;;;;6.45;1.58;;;12.30;99.90;;;;;;5093375;28;20533;-70
2021/10/12 11:51:18;;;;;;;6.28;1.55;;;12.30;99.90;;;;;;5093156;28;20594;-69
2021/10/12 11:53:44;;;;;;;;;;;12.30;99.90;;;;;;5093683;28;20067;-69
2021/10/12 11:56:12;;;;;;;8.95;1.83;;;12.30;99.90;;;;;;5093242;28;19924;-69
2021/10/12 11:58:41;;;;;;;12.68;2.08;;;12.30;99.90;;;;;;5094111;28;20043;-69
2021/10/12 12:01:09;;;;;;;4.70;1.50;;;12.50;99.90;;;;;;5094440;28;20036;-69
2021/10/12 12:03:35;;;;;;;5.72;1.40;;;12.60;99.90;;;;;;5094445;28;20388;-69
2021/10/12 12:06:01;;;;;;;8.65;1.25;;;12.70;99.90;;;;;;5092913;28;20059;-70
2021/10/12 12:08:30;;;;;;;5.18;1.33;;;12.80;99.90;;;;;;5094316;28;20118;-70
2021/10/12 12:10:57;;;;;;;20.30;4.47;;;12.80;99.90;;;;;;5094176;28;20046;-70
2021/10/12 12:13:29;;;;;;;9.23;1.70;;;12.70;99.90;;;;;;5094282;28;20153;-69
2021/10/12 12:15:55;;;;;;;9.90;1.50;;;12.70;99.90;;;;;;5094209;28;20051;-69
2021/10/12 12:18:23;;;;;;;7.85;1.35;;;12.70;99.90;;;;;;5092955;28;20051;-69
2021/10/12 12:20:57;;;;;;;10.40;2.83;;;12.80;99.90;;;;;;5093447;28;20043;-68
2021/10/12 12:23:33;;;;;;;13.95;6.88;;;12.80;99.90;;;;;;5093702;28;20042;-68
2021/10/12 12:25:59;;;;;;;5.90;1.70;;;12.80;99.90;;;;;;5093887;28;20040;-68
2021/10/12 12:28:25;;;;;;;10.80;2.80;;;12.80;99.90;;;;;;5093793;28;20047;-69
2021/10/12 12:30:51;;;;;;;8.30;2.38;;;12.70;99.90;;;;;;5093476;28;20443;-68
2021/10/12 12:33:16;;;;;;;6.68;1.58;;;12.70;99.90;;;;;;5092559;28;20040;-69
2021/10/12 12:35:49;;;;;;;9.98;1.90;;;12.60;99.90;;;;;;5093517;28;20590;-69
2021/10/12 12:38:31;;;;;;;10.48;1.30;;;12.60;99.90;;;;;;5093844;28;20079;-69
2021/10/12 12:40:57;;;;;;;97.13;13.33;;;12.50;99.90;;;;;;5094242;28;20089;-70
2021/10/12 12:43:25;;;;;;;5.40;1.20;;;12.60;99.90;;;;;;5093672;28;20124;-70
2021/10/12 12:46:10;;;;;;;6.07;1.40;;;12.70;99.90;;;;;;5092298;28;20055;-69
2021/10/12 12:48:36;;;;;;;4.88;1.33;;;12.60;99.90;;;;;;5093625;28;20040;-71